sensor_id;sensor_type;location;lat;lon;timestamp;P1;durP1;ratioP1;P2;durP2;ratioP2
44885;SDS011;36669;51.428;21.162;2023-02-12T00:01:19;6.88;;;2.70;;
44885;SDS011;36669;51.428;21.162;2023-02-12T00:03:48;4.13;;;1.73;;
44885;SDS011;36669;51.428;21.162;2023-02-12T00:06:15;3.67;;;1.25;;
44885;SDS011;36669;51.428;21.162;2023-02-12T00:08:43;8.35;;;1.45;;
44885;SDS011;36669;51.428;21.162;2023-02-12T00:11:15;2.38;;;1.13;;
44885;SDS011;36669;51.428;21.162;2023-02-12T00:13:43;3.40;;;0.88;;
44885;SDS011;36669;51.428;21.162;2023-02-12T00:16:12;0.80;;;0.80;;
44885;SDS011;36669;51.428;21.162;2023-02-12T00:18:39;1.55;;;0.93;;
44885;SDS011;36669;51.428;21.162;2023-02-12T00:21:06;3.83;;;1.75;;
44885;SDS011;36669;51.428;21.162;2023-02-12T00:23:34;3.50;;;1.85;;
44885;SDS011;36669;51.428;21.162;2023-02-12T00:26:10;2.15;;;1.30;;
44885;SDS011;36669;51.428;21.162;2023-02-12T00:28:40;2.58;;;0.73;;
44885;SDS011;36669;51.428;21.162;2023-02-12T00:31:09;3.38;;;1.13;;
44885;SDS011;36669;51.428;21.162;2023-02-12T00:33:39;1.42;;;0.75;;
44885;SDS011;36669;51.428;21.162;2023-02-12T00:36:06;2.13;;;1.15;;
44885;SDS011;36669;51.428;21.162;2023-02-12T00:38:41;2.20;;;1.00;;
44885;SDS011;36669;51.428;21.162;2023-02-12T00:41:09;0.10;;;0.10;;
44885;SDS011;36669;51.428;21.162;2023-02-12T00:43:35;3.00;;;0.70;;
44885;SDS011;36669;51.428;21.162;2023-02-12T00:46:02;0.95;;;0.57;;
44885;SDS011;36669;51.428;21.162;2023-02-12T00:48:32;0.08;;;0.08;;
44885;SDS011;36669;51.428;21.162;2023-02-12T00:50:59;0.80;;;0.80;;
44885;SDS011;36669;51.428;21.162;2023-02-12T00:53:26;1.70;;;0.90;;
44885;SDS011;36669;51.428;21.162;2023-02-12T00:55:52;1.40;;;1.15;;
44885;SDS011;36669;51.428;21.162;2023-02-12T00:58:19;1.63;;;0.57;;
44885;SDS011;36669;51.428;21.162;2023-02-12T01:00:48;0.28;;;0.28;;
44885;SDS011;36669;51.428;21.162;2023-02-12T01:03:15;1.42;;;0.95;;
44885;SDS011;36669;51.428;21.162;2023-02-12T01:05:42;0.57;;;0.40;;
44885;SDS011;36669;51.428;21.162;2023-02-12T01:08:11;1.45;;;1.00;;
44885;SDS011;36669;51.428;21.162;2023-02-12T01:10:42;0.20;;;0.20;;
44885;SDS011;36669;51.428;21.162;2023-02-12T01:13:10;0.15;;;0.15;;
44885;SDS011;36669;51.428;21.162;2023-02-12T01:15:41;0.75;;;0.70;;
44885;SDS011;36669;51.428;21.162;2023-02-12T01:18:10;2.75;;;0.88;;
44885;SDS011;36669;51.428;21.162;2023-02-12T01:20:38;0.30;;;0.30;;
44885;SDS011;36669;51.428;21.162;2023-02-12T01:23:06;1.67;;;0.85;;
44885;SDS011;36669;51.428;21.162;2023-02-12T01:25:36;1.58;;;0.77;;
44885;SDS011;36669;51.428;21.162;2023-02-12T01:28:04;0.10;;;0.10;;
44885;SDS011;36669;51.428;21.162;2023-02-12T01:30:31;4.53;;;0.80;;
44885;SDS011;36669;51.428;21.162;2023-02-12T01:32:58;1.52;;;0.88;;
44885;SDS011;36669;51.428;21.162;2023-02-12T01:35:25;0.63;;;0.45;;
44885;SDS011;36669;51.428;21.162;2023-02-12T01:37:52;1.02;;;0.55;;
44885;SDS011;36669;51.428;21.162;2023-02-12T01:40:19;0.30;;;0.30;;
44885;SDS011;36669;51.428;21.162;2023-02-12T01:42:46;0.35;;;0.28;;
44885;SDS011;36669;51.428;21.162;2023-02-12T01:48:09;2.10;;;1.95;;
44885;SDS011;36669;51.428;21.162;2023-02-12T01:50:36;0.40;;;0.40;;
44885;SDS011;36669;51.428;21.162;2023-02-12T01:53:02;1.38;;;0.47;;
44885;SDS011;36669;51.428;21.162;2023-02-12T01:55:31;0.20;;;0.20;;
44885;SDS011;36669;51.428;21.162;2023-02-12T01:57:56;0.10;;;0.10;;
44885;SDS011;36669;51.428;21.162;2023-02-12T02:00:24;0.52;;;0.45;;
44885;SDS011;36669;51.428;21.162;2023-02-12T02:02:52;2.53;;;0.73;;
44885;SDS011;36669;51.428;21.162;2023-02-12T02:06:23;0.10;;;0.10;;
44885;SDS011;36669;51.428;21.162;2023-02-12T02:08:33;0.25;;;0.25;;
44885;SDS011;36669;51.428;21.162;2023-02-12T02:11:02;0.10;;;0.10;;
44885;SDS011;36669;51.428;21.162;2023-02-12T02:13:50;0.10;;;0.10;;
44885;SDS011;36669;51.428;21.162;2023-02-12T02:16:37;1.45;;;0.65;;
44885;SDS011;36669;51.428;21.162;2023-02-12T02:40:17;0.82;;;0.80;;
44885;SDS011;36669;51.428;21.162;2023-02-12T02:43:01;0.28;;;0.28;;
44885;SDS011;36669;51.428;21.162;2023-02-12T02:45:51;0.00;;;0.00;;
44885;SDS011;36669;51.428;21.162;2023-02-12T02:48:28;0.20;;;0.20;;
44885;SDS011;36669;51.428;21.162;2023-02-12T02:51:02;0.08;;;0.05;;
44885;SDS011;36669;51.428;21.162;2023-02-12T02:54:42;0.55;;;0.55;;
44885;SDS011;36669;51.428;21.162;2023-02-12T02:59:31;0.30;;;0.28;;
44885;SDS011;36669;51.428;21.162;2023-02-12T03:05:07;0.65;;;0.40;;
44885;SDS011;36669;51.428;21.162;2023-02-12T03:08:02;8.23;;;0.47;;
44885;SDS011;36669;51.428;21.162;2023-02-12T03:10:39;0.30;;;0.30;;
44885;SDS011;36669;51.428;21.162;2023-02-12T03:13:19;0.13;;;0.13;;
44885;SDS011;36669;51.428;21.162;2023-02-12T03:18:53;0.30;;;0.30;;
44885;SDS011;36669;51.428;21.162;2023-02-12T03:24:57;0.28;;;0.17;;
44885;SDS011;36669;51.428;21.162;2023-02-12T03:27:34;1.05;;;0.70;;
44885;SDS011;36669;51.428;21.162;2023-02-12T03:30:06;0.75;;;0.75;;
44885;SDS011;36669;51.428;21.162;2023-02-12T03:35:53;3.72;;;0.93;;
44885;SDS011;36669;51.428;21.162;2023-02-12T03:38:33;0.75;;;0.75;;
44885;SDS011;36669;51.428;21.162;2023-02-12T03:41:31;0.35;;;0.35;;
44885;SDS011;36669;51.428;21.162;2023-02-12T03:47:07;0.38;;;0.38;;
44885;SDS011;36669;51.428;21.162;2023-02-12T03:49:59;2.08;;;0.95;;
44885;SDS011;36669;51.428;21.162;2023-02-12T03:52:33;1.45;;;0.52;;
44885;SDS011;36669;51.428;21.162;2023-02-12T03:55:02;0.00;;;0.00;;
44885;SDS011;36669;51.428;21.162;2023-02-12T03:57:36;0.82;;;0.75;;
44885;SDS011;36669;51.428;21.162;2023-02-12T04:00:12;0.25;;;0.25;;
44885;SDS011;36669;51.428;21.162;2023-02-12T04:02:42;1.17;;;0.75;;
44885;SDS011;36669;51.428;21.162;2023-02-12T04:05:22;0.63;;;0.50;;
44885;SDS011;36669;51.428;21.162;2023-02-12T04:07:51;0.32;;;0.32;;
44885;SDS011;36669;51.428;21.162;2023-02-12T04:11:06;0.95;;;0.63;;
44885;SDS011;36669;51.428;21.162;2023-02-12T04:29:50;0.80;;;0.60;;
44885;SDS011;36669;51.428;21.162;2023-02-12T04:35:21;2.03;;;1.45;;
44885;SDS011;36669;51.428;21.162;2023-02-12T04:38:14;0.20;;;0.20;;
44885;SDS011;36669;51.428;21.162;2023-02-12T04:40:58;1.07;;;0.60;;
44885;SDS011;36669;51.428;21.162;2023-02-12T04:43:25;1.67;;;0.50;;
44885;SDS011;36669;51.428;21.162;2023-02-12T04:45:57;0.43;;;0.43;;
44885;SDS011;36669;51.428;21.162;2023-02-12T04:48:26;0.45;;;0.45;;
44885;SDS011;36669;51.428;21.162;2023-02-12T04:50:53;0.30;;;0.30;;
44885;SDS011;36669;51.428;21.162;2023-02-12T04:53:29;1.00;;;0.57;;
44885;SDS011;36669;51.428;21.162;2023-02-12T04:55:56;0.88;;;0.60;;
44885;SDS011;36669;51.428;21.162;2023-02-12T04:58:23;0.40;;;0.40;;
44885;SDS011;36669;51.428;21.162;2023-02-12T05:00:51;0.20;;;0.20;;
44885;SDS011;36669;51.428;21.162;2023-02-12T05:03:18;1.98;;;0.55;;
44885;SDS011;36669;51.428;21.162;2023-02-12T05:05:46;0.80;;;0.80;;
44885;SDS011;36669;51.428;21.162;2023-02-12T05:08:14;0.47;;;0.40;;
44885;SDS011;36669;51.428;21.162;2023-02-12T05:10:42;0.17;;;0.17;;
44885;SDS011;36669;51.428;21.162;2023-02-12T05:13:11;0.10;;;0.10;;
44885;SDS011;36669;51.428;21.162;2023-02-12T05:15:38;0.00;;;0.00;;
44885;SDS011;36669;51.428;21.162;2023-02-12T05:18:04;0.30;;;0.30;;
44885;SDS011;36669;51.428;21.162;2023-02-12T05:20:31;0.10;;;0.10;;
44885;SDS011;36669;51.428;21.162;2023-02-12T05:22:59;0.10;;;0.10;;
44885;SDS011;36669;51.428;21.162;2023-02-12T05:25:24;0.20;;;0.20;;
44885;SDS011;36669;51.428;21.162;2023-02-12T05:27:51;0.25;;;0.25;;
44885;SDS011;36669;51.428;21.162;2023-02-12T05:30:22;0.30;;;0.30;;
44885;SDS011;36669;51.428;21.162;2023-02-12T05:32:49;0.20;;;0.20;;
44885;SDS011;36669;51.428;21.162;2023-02-12T05:35:16;0.00;;;0.00;;
44885;SDS011;36669;51.428;21.162;2023-02-12T05:37:44;0.10;;;0.10;;
44885;SDS011;36669;51.428;21.162;2023-02-12T05:40:11;1.00;;;0.90;;
44885;SDS011;36669;51.428;21.162;2023-02-12T05:42:39;0.80;;;0.80;;
44885;SDS011;36669;51.428;21.162;2023-02-12T05:45:07;0.20;;;0.20;;
44885;SDS011;36669;51.428;21.162;2023-02-12T05:47:34;0.00;;;0.00;;
44885;SDS011;36669;51.428;21.162;2023-02-12T05:50:01;1.05;;;0.10;;
44885;SDS011;36669;51.428;21.162;2023-02-12T05:52:28;0.60;;;0.40;;
44885;SDS011;36669;51.428;21.162;2023-02-12T05:54:56;0.90;;;0.40;;
44885;SDS011;36669;51.428;21.162;2023-02-12T05:57:23;0.60;;;0.60;;
44885;SDS011;36669;51.428;21.162;2023-02-12T05:59:50;0.82;;;0.60;;
44885;SDS011;36669;51.428;21.162;2023-02-12T06:02:17;0.40;;;0.38;;
44885;SDS011;36669;51.428;21.162;2023-02-12T06:04:44;2.15;;;1.10;;
44885;SDS011;36669;51.428;21.162;2023-02-12T06:07:11;0.90;;;0.70;;
44885;SDS011;36669;51.428;21.162;2023-02-12T06:09:37;3.20;;;0.52;;
44885;SDS011;36669;51.428;21.162;2023-02-12T06:12:06;0.10;;;0.10;;
44885;SDS011;36669;51.428;21.162;2023-02-12T06:14:33;1.45;;;0.70;;
44885;SDS011;36669;51.428;21.162;2023-02-12T06:16:58;0.00;;;0.00;;
44885;SDS011;36669;51.428;21.162;2023-02-12T06:19:24;0.65;;;0.65;;
44885;SDS011;36669;51.428;21.162;2023-02-12T06:21:53;0.47;;;0.22;;
44885;SDS011;36669;51.428;21.162;2023-02-12T06:24:20;0.00;;;0.00;;
44885;SDS011;36669;51.428;21.162;2023-02-12T06:26:49;0.40;;;0.40;;
44885;SDS011;36669;51.428;21.162;2023-02-12T06:29:17;0.70;;;0.70;;
44885;SDS011;36669;51.428;21.162;2023-02-12T06:31:44;0.08;;;0.08;;
44885;SDS011;36669;51.428;21.162;2023-02-12T06:34:11;0.52;;;0.30;;
44885;SDS011;36669;51.428;21.162;2023-02-12T06:36:42;0.25;;;0.25;;
44885;SDS011;36669;51.428;21.162;2023-02-12T06:39:12;1.00;;;0.65;;
44885;SDS011;36669;51.428;21.162;2023-02-12T06:41:40;1.75;;;0.63;;
44885;SDS011;36669;51.428;21.162;2023-02-12T06:44:10;0.10;;;0.10;;
44885;SDS011;36669;51.428;21.162;2023-02-12T06:46:38;0.38;;;0.38;;
44885;SDS011;36669;51.428;21.162;2023-02-12T06:49:04;0.10;;;0.10;;
44885;SDS011;36669;51.428;21.162;2023-02-12T06:51:29;0.10;;;0.10;;
44885;SDS011;36669;51.428;21.162;2023-02-12T06:53:58;0.38;;;0.38;;
44885;SDS011;36669;51.428;21.162;2023-02-12T06:56:25;1.50;;;0.80;;
44885;SDS011;36669;51.428;21.162;2023-02-12T06:58:54;0.52;;;0.50;;
44885;SDS011;36669;51.428;21.162;2023-02-12T07:01:23;0.00;;;0.00;;
44885;SDS011;36669;51.428;21.162;2023-02-12T07:03:59;0.00;;;0.00;;
44885;SDS011;36669;51.428;21.162;2023-02-12T07:06:28;0.17;;;0.17;;
44885;SDS011;36669;51.428;21.162;2023-02-12T07:08:56;1.80;;;0.17;;
44885;SDS011;36669;51.428;21.162;2023-02-12T07:11:25;0.00;;;0.00;;
44885;SDS011;36669;51.428;21.162;2023-02-12T07:13:51;0.00;;;0.00;;
44885;SDS011;36669;51.428;21.162;2023-02-12T07:16:19;0.20;;;0.20;;
44885;SDS011;36669;51.428;21.162;2023-02-12T07:18:57;0.15;;;0.15;;
44885;SDS011;36669;51.428;21.162;2023-02-12T07:21:24;0.00;;;0.00;;
44885;SDS011;36669;51.428;21.162;2023-02-12T07:23:51;0.05;;;0.05;;
44885;SDS011;36669;51.428;21.162;2023-02-12T07:26:19;0.00;;;0.00;;
44885;SDS011;36669;51.428;21.162;2023-02-12T07:28:46;0.10;;;0.10;;
44885;SDS011;36669;51.428;21.162;2023-02-12T07:31:14;0.00;;;0.00;;
44885;SDS011;36669;51.428;21.162;2023-02-12T07:33:42;1.25;;;0.30;;
44885;SDS011;36669;51.428;21.162;2023-02-12T07:36:12;0.00;;;0.00;;
44885;SDS011;36669;51.428;21.162;2023-02-12T07:38:49;0.10;;;0.10;;
44885;SDS011;36669;51.428;21.162;2023-02-12T07:41:30;0.63;;;0.28;;
44885;SDS011;36669;51.428;21.162;2023-02-12T07:43:59;0.05;;;0.05;;
44885;SDS011;36669;51.428;21.162;2023-02-12T07:46:44;0.10;;;0.10;;
44885;SDS011;36669;51.428;21.162;2023-02-12T07:49:13;0.00;;;0.00;;
44885;SDS011;36669;51.428;21.162;2023-02-12T07:51:47;0.00;;;0.00;;
44885;SDS011;36669;51.428;21.162;2023-02-12T07:54:16;0.38;;;0.38;;
44885;SDS011;36669;51.428;21.162;2023-02-12T07:56:43;0.10;;;0.10;;
44885;SDS011;36669;51.428;21.162;2023-02-12T07:59:13;0.00;;;0.00;;
44885;SDS011;36669;51.428;21.162;2023-02-12T08:01:44;0.00;;;0.00;;
44885;SDS011;36669;51.428;21.162;2023-02-12T08:04:14;0.03;;;0.03;;
44885;SDS011;36669;51.428;21.162;2023-02-12T08:06:45;1.48;;;0.50;;
44885;SDS011;36669;51.428;21.162;2023-02-12T08:09:15;0.43;;;0.10;;
44885;SDS011;36669;51.428;21.162;2023-02-12T08:11:44;0.00;;;0.00;;
44885;SDS011;36669;51.428;21.162;2023-02-12T08:14:13;0.00;;;0.00;;
44885;SDS011;36669;51.428;21.162;2023-02-12T08:16:41;0.10;;;0.10;;
44885;SDS011;36669;51.428;21.162;2023-02-12T08:19:09;0.00;;;0.00;;
44885;SDS011;36669;51.428;21.162;2023-02-12T08:21:37;0.10;;;0.10;;
44885;SDS011;36669;51.428;21.162;2023-02-12T08:24:04;0.00;;;0.00;;
44885;SDS011;36669;51.428;21.162;2023-02-12T08:26:33;0.00;;;0.00;;
44885;SDS011;36669;51.428;21.162;2023-02-12T08:29:05;0.00;;;0.00;;
44885;SDS011;36669;51.428;21.162;2023-02-12T08:31:42;0.00;;;0.00;;
44885;SDS011;36669;51.428;21.162;2023-02-12T08:34:21;4.93;;;4.60;;
44885;SDS011;36669;51.428;21.162;2023-02-12T08:36:54;0.00;;;0.00;;
44885;SDS011;36669;51.428;21.162;2023-02-12T08:39:24;0.13;;;0.13;;
44885;SDS011;36669;51.428;21.162;2023-02-12T08:41:56;0.30;;;0.30;;
44885;SDS011;36669;51.428;21.162;2023-02-12T08:44:27;0.20;;;0.20;;
44885;SDS011;36669;51.428;21.162;2023-02-12T08:46:54;1.05;;;0.68;;
44885;SDS011;36669;51.428;21.162;2023-02-12T08:49:25;0.10;;;0.10;;
44885;SDS011;36669;51.428;21.162;2023-02-12T08:51:56;0.40;;;0.40;;
44885;SDS011;36669;51.428;21.162;2023-02-12T08:54:26;1.00;;;0.32;;
44885;SDS011;36669;51.428;21.162;2023-02-12T08:56:53;0.08;;;0.08;;
44885;SDS011;36669;51.428;21.162;2023-02-12T08:59:25;0.00;;;0.00;;
44885;SDS011;36669;51.428;21.162;2023-02-12T09:01:53;0.05;;;0.05;;
44885;SDS011;36669;51.428;21.162;2023-02-12T09:04:22;0.00;;;0.00;;
44885;SDS011;36669;51.428;21.162;2023-02-12T09:06:50;0.32;;;0.32;;
44885;SDS011;36669;51.428;21.162;2023-02-12T09:09:18;0.73;;;0.50;;
44885;SDS011;36669;51.428;21.162;2023-02-12T09:11:46;0.00;;;0.00;;
44885;SDS011;36669;51.428;21.162;2023-02-12T09:14:14;0.17;;;0.13;;
44885;SDS011;36669;51.428;21.162;2023-02-12T09:16:44;0.63;;;0.63;;
44885;SDS011;36669;51.428;21.162;2023-02-12T09:19:12;0.25;;;0.25;;
44885;SDS011;36669;51.428;21.162;2023-02-12T09:21:41;0.00;;;0.00;;
44885;SDS011;36669;51.428;21.162;2023-02-12T09:24:08;0.00;;;0.00;;
44885;SDS011;36669;51.428;21.162;2023-02-12T09:26:35;1.13;;;1.00;;
44885;SDS011;36669;51.428;21.162;2023-02-12T09:29:03;1.98;;;1.20;;
44885;SDS011;36669;51.428;21.162;2023-02-12T09:31:30;15.23;;;0.57;;
44885;SDS011;36669;51.428;21.162;2023-02-12T09:34:00;0.65;;;0.50;;
44885;SDS011;36669;51.428;21.162;2023-02-12T09:36:28;1.60;;;0.98;;
44885;SDS011;36669;51.428;21.162;2023-02-12T09:38:57;0.10;;;0.10;;
44885;SDS011;36669;51.428;21.162;2023-02-12T09:44:32;0.77;;;0.75;;
44885;SDS011;36669;51.428;21.162;2023-02-12T09:47:21;0.32;;;0.32;;
44885;SDS011;36669;51.428;21.162;2023-02-12T09:53:18;3.83;;;0.38;;
44885;SDS011;36669;51.428;21.162;2023-02-12T09:56:07;0.40;;;0.40;;
44885;SDS011;36669;51.428;21.162;2023-02-12T09:58:52;6.45;;;2.17;;
44885;SDS011;36669;51.428;21.162;2023-02-12T10:01:34;0.45;;;0.45;;
44885;SDS011;36669;51.428;21.162;2023-02-12T10:04:00;0.57;;;0.50;;
44885;SDS011;36669;51.428;21.162;2023-02-12T10:06:34;2.65;;;1.48;;
44885;SDS011;36669;51.428;21.162;2023-02-12T10:12:38;0.70;;;0.70;;
44885;SDS011;36669;51.428;21.162;2023-02-12T10:15:45;7.72;;;1.63;;
44885;SDS011;36669;51.428;21.162;2023-02-12T10:24:40;1.38;;;1.17;;
44885;SDS011;36669;51.428;21.162;2023-02-12T10:27:48;2.40;;;0.88;;
44885;SDS011;36669;51.428;21.162;2023-02-12T10:30:36;1.25;;;1.02;;
44885;SDS011;36669;51.428;21.162;2023-02-12T10:33:32;1.02;;;0.93;;
44885;SDS011;36669;51.428;21.162;2023-02-12T10:38:33;1.85;;;1.35;;
44885;SDS011;36669;51.428;21.162;2023-02-12T10:41:03;4.75;;;1.48;;
44885;SDS011;36669;51.428;21.162;2023-02-12T10:43:30;2.08;;;1.85;;
44885;SDS011;36669;51.428;21.162;2023-02-12T10:45:57;0.73;;;0.73;;
44885;SDS011;36669;51.428;21.162;2023-02-12T10:48:36;0.73;;;0.68;;
44885;SDS011;36669;51.428;21.162;2023-02-12T10:51:37;0.00;;;0.00;;
44885;SDS011;36669;51.428;21.162;2023-02-12T10:59:49;8.73;;;2.47;;
44885;SDS011;36669;51.428;21.162;2023-02-12T11:02:27;2.08;;;1.70;;
44885;SDS011;36669;51.428;21.162;2023-02-12T11:04:57;6.53;;;1.70;;
44885;SDS011;36669;51.428;21.162;2023-02-12T11:07:48;1.67;;;1.58;;
44885;SDS011;36669;51.428;21.162;2023-02-12T11:13:21;6.78;;;3.35;;
44885;SDS011;36669;51.428;21.162;2023-02-12T11:15:50;5.13;;;2.22;;
44885;SDS011;36669;51.428;21.162;2023-02-12T11:18:25;3.47;;;2.28;;
44885;SDS011;36669;51.428;21.162;2023-02-12T11:21:04;1.83;;;1.17;;
44885;SDS011;36669;51.428;21.162;2023-02-12T11:23:40;5.15;;;3.25;;
44885;SDS011;36669;51.428;21.162;2023-02-12T11:29:01;5.25;;;1.30;;
44885;SDS011;36669;51.428;21.162;2023-02-12T11:32:03;2.05;;;1.50;;
44885;SDS011;36669;51.428;21.162;2023-02-12T11:34:32;2.55;;;1.60;;
44885;SDS011;36669;51.428;21.162;2023-02-12T11:36:59;5.15;;;1.55;;
44885;SDS011;36669;51.428;21.162;2023-02-12T11:39:45;1.35;;;0.95;;
44885;SDS011;36669;51.428;21.162;2023-02-12T11:42:19;2.00;;;1.42;;
44885;SDS011;36669;51.428;21.162;2023-02-12T11:44:52;1.30;;;0.93;;
44885;SDS011;36669;51.428;21.162;2023-02-12T11:47:22;2.42;;;1.70;;
44885;SDS011;36669;51.428;21.162;2023-02-12T11:49:55;1.50;;;1.10;;
44885;SDS011;36669;51.428;21.162;2023-02-12T11:52:59;2.40;;;1.50;;
44885;SDS011;36669;51.428;21.162;2023-02-12T11:55:44;3.03;;;1.55;;
44885;SDS011;36669;51.428;21.162;2023-02-12T11:58:20;4.30;;;2.50;;
44885;SDS011;36669;51.428;21.162;2023-02-12T12:06:55;0.30;;;0.30;;
44885;SDS011;36669;51.428;21.162;2023-02-12T12:10:06;3.53;;;1.20;;
44885;SDS011;36669;51.428;21.162;2023-02-12T12:12:57;3.90;;;2.35;;
44885;SDS011;36669;51.428;21.162;2023-02-12T12:21:53;3.40;;;2.08;;
44885;SDS011;36669;51.428;21.162;2023-02-12T12:24:39;4.80;;;2.00;;
44885;SDS011;36669;51.428;21.162;2023-02-12T12:30:39;4.05;;;0.93;;
44885;SDS011;36669;51.428;21.162;2023-02-12T13:02:30;6.72;;;1.80;;
44885;SDS011;36669;51.428;21.162;2023-02-12T13:13:50;2.45;;;1.65;;
44885;SDS011;36669;51.428;21.162;2023-02-12T13:16:29;3.33;;;1.60;;
44885;SDS011;36669;51.428;21.162;2023-02-12T13:24:33;2.90;;;1.60;;
44885;SDS011;36669;51.428;21.162;2023-02-12T13:29:52;2.97;;;1.90;;
44885;SDS011;36669;51.428;21.162;2023-02-12T13:33:09;0.57;;;0.50;;
44885;SDS011;36669;51.428;21.162;2023-02-12T13:35:36;0.40;;;0.25;;
44885;SDS011;36669;51.428;21.162;2023-02-12T13:38:07;0.75;;;0.75;;
44885;SDS011;36669;51.428;21.162;2023-02-12T13:40:39;1.45;;;0.70;;
44885;SDS011;36669;51.428;21.162;2023-02-12T13:46:06;1.58;;;1.25;;
44885;SDS011;36669;51.428;21.162;2023-02-12T13:48:46;25.10;;;4.38;;
44885;SDS011;36669;51.428;21.162;2023-02-12T13:57:14;3.42;;;1.60;;
44885;SDS011;36669;51.428;21.162;2023-02-12T13:59:52;4.50;;;2.15;;
44885;SDS011;36669;51.428;21.162;2023-02-12T14:05:14;2.63;;;1.83;;
44885;SDS011;36669;51.428;21.162;2023-02-12T14:07:50;1.92;;;0.77;;
44885;SDS011;36669;51.428;21.162;2023-02-12T14:13:33;2.97;;;1.65;;
44885;SDS011;36669;51.428;21.162;2023-02-12T14:22:55;1.90;;;1.30;;
44885;SDS011;36669;51.428;21.162;2023-02-12T14:36:46;4.10;;;1.60;;
44885;SDS011;36669;51.428;21.162;2023-02-12T14:39:32;4.57;;;2.00;;
44885;SDS011;36669;51.428;21.162;2023-02-12T14:44:44;1.60;;;1.17;;
44885;SDS011;36669;51.428;21.162;2023-02-12T14:47:59;3.00;;;1.95;;
44885;SDS011;36669;51.428;21.162;2023-02-12T14:50:06;2.08;;;0.70;;
44885;SDS011;36669;51.428;21.162;2023-02-12T14:52:45;5.97;;;2.38;;
44885;SDS011;36669;51.428;21.162;2023-02-12T14:55:29;11.88;;;2.22;;
44885;SDS011;36669;51.428;21.162;2023-02-12T14:58:00;4.18;;;1.50;;
44885;SDS011;36669;51.428;21.162;2023-02-12T15:00:33;3.15;;;1.48;;
44885;SDS011;36669;51.428;21.162;2023-02-12T15:08:59;5.93;;;2.47;;
44885;SDS011;36669;51.428;21.162;2023-02-12T15:11:49;5.53;;;1.40;;
44885;SDS011;36669;51.428;21.162;2023-02-12T15:14:39;4.32;;;1.90;;
44885;SDS011;36669;51.428;21.162;2023-02-12T15:17:11;1.88;;;1.17;;
44885;SDS011;36669;51.428;21.162;2023-02-12T15:20:04;3.33;;;1.63;;
44885;SDS011;36669;51.428;21.162;2023-02-12T15:22:47;0.50;;;0.50;;
44885;SDS011;36669;51.428;21.162;2023-02-12T15:25:30;3.97;;;2.60;;
44885;SDS011;36669;51.428;21.162;2023-02-12T15:27:58;8.60;;;3.65;;
44885;SDS011;36669;51.428;21.162;2023-02-12T15:30:28;3.00;;;1.63;;
44885;SDS011;36669;51.428;21.162;2023-02-12T15:33:00;6.38;;;3.03;;
44885;SDS011;36669;51.428;21.162;2023-02-12T15:35:47;5.63;;;3.83;;
44885;SDS011;36669;51.428;21.162;2023-02-12T15:38:19;6.97;;;1.75;;
44885;SDS011;36669;51.428;21.162;2023-02-12T15:40:56;2.92;;;1.63;;
44885;SDS011;36669;51.428;21.162;2023-02-12T15:43:29;6.93;;;2.53;;
44885;SDS011;36669;51.428;21.162;2023-02-12T15:46:04;4.63;;;3.53;;
44885;SDS011;36669;51.428;21.162;2023-02-12T15:48:41;6.43;;;2.58;;
44885;SDS011;36669;51.428;21.162;2023-02-12T15:54:07;7.53;;;2.72;;
44885;SDS011;36669;51.428;21.162;2023-02-12T15:56:34;5.95;;;2.88;;
44885;SDS011;36669;51.428;21.162;2023-02-12T15:59:05;13.55;;;4.57;;
44885;SDS011;36669;51.428;21.162;2023-02-12T16:01:55;12.60;;;5.65;;
44885;SDS011;36669;51.428;21.162;2023-02-12T16:04:24;11.23;;;5.32;;
44885;SDS011;36669;51.428;21.162;2023-02-12T16:06:53;3.13;;;2.30;;
44885;SDS011;36669;51.428;21.162;2023-02-12T16:09:24;7.40;;;3.45;;
44885;SDS011;36669;51.428;21.162;2023-02-12T16:12:00;19.98;;;4.60;;
44885;SDS011;36669;51.428;21.162;2023-02-12T16:17:17;6.22;;;3.22;;
44885;SDS011;36669;51.428;21.162;2023-02-12T16:22:51;7.18;;;3.60;;
44885;SDS011;36669;51.428;21.162;2023-02-12T16:25:23;11.32;;;5.43;;
44885;SDS011;36669;51.428;21.162;2023-02-12T16:28:03;10.40;;;3.45;;
44885;SDS011;36669;51.428;21.162;2023-02-12T16:30:52;8.02;;;3.97;;
44885;SDS011;36669;51.428;21.162;2023-02-12T16:36:44;8.82;;;3.38;;
44885;SDS011;36669;51.428;21.162;2023-02-12T16:40:08;13.32;;;4.45;;
44885;SDS011;36669;51.428;21.162;2023-02-12T16:42:16;15.25;;;4.25;;
44885;SDS011;36669;51.428;21.162;2023-02-12T16:44:50;24.50;;;7.10;;
44885;SDS011;36669;51.428;21.162;2023-02-12T16:47:22;19.77;;;9.02;;
44885;SDS011;36669;51.428;21.162;2023-02-12T16:50:00;20.58;;;7.18;;
44885;SDS011;36669;51.428;21.162;2023-02-12T16:55:02;13.68;;;7.28;;
44885;SDS011;36669;51.428;21.162;2023-02-12T16:57:32;31.48;;;14.32;;
44885;SDS011;36669;51.428;21.162;2023-02-12T17:00:02;17.42;;;6.13;;
44885;SDS011;36669;51.428;21.162;2023-02-12T17:02:40;17.60;;;3.15;;
44885;SDS011;36669;51.428;21.162;2023-02-12T17:05:07;8.95;;;3.28;;
44885;SDS011;36669;51.428;21.162;2023-02-12T17:07:36;36.88;;;16.55;;
44885;SDS011;36669;51.428;21.162;2023-02-12T17:10:02;21.92;;;9.00;;
44885;SDS011;36669;51.428;21.162;2023-02-12T17:12:29;36.28;;;11.35;;
44885;SDS011;36669;51.428;21.162;2023-02-12T17:14:57;12.70;;;7.38;;
44885;SDS011;36669;51.428;21.162;2023-02-12T17:17:29;79.15;;;27.13;;
44885;SDS011;36669;51.428;21.162;2023-02-12T17:19:57;82.85;;;32.28;;
44885;SDS011;36669;51.428;21.162;2023-02-12T17:22:23;23.23;;;11.48;;
44885;SDS011;36669;51.428;21.162;2023-02-12T17:24:52;17.13;;;4.80;;
44885;SDS011;36669;51.428;21.162;2023-02-12T17:27:20;14.07;;;6.82;;
44885;SDS011;36669;51.428;21.162;2023-02-12T17:29:47;22.67;;;10.55;;
44885;SDS011;36669;51.428;21.162;2023-02-12T17:32:14;59.35;;;22.13;;
44885;SDS011;36669;51.428;21.162;2023-02-12T17:34:42;37.70;;;15.93;;
44885;SDS011;36669;51.428;21.162;2023-02-12T17:37:10;52.63;;;19.83;;
44885;SDS011;36669;51.428;21.162;2023-02-12T17:39:39;39.95;;;12.02;;
44885;SDS011;36669;51.428;21.162;2023-02-12T17:42:07;40.15;;;14.50;;
44885;SDS011;36669;51.428;21.162;2023-02-12T17:44:34;79.72;;;26.80;;
44885;SDS011;36669;51.428;21.162;2023-02-12T17:47:00;56.88;;;21.88;;
44885;SDS011;36669;51.428;21.162;2023-02-12T17:49:29;68.25;;;25.48;;
44885;SDS011;36669;51.428;21.162;2023-02-12T17:51:57;71.30;;;28.67;;
44885;SDS011;36669;51.428;21.162;2023-02-12T17:54:30;64.97;;;29.85;;
44885;SDS011;36669;51.428;21.162;2023-02-12T17:56:57;72.93;;;27.27;;
44885;SDS011;36669;51.428;21.162;2023-02-12T17:59:24;46.00;;;16.33;;
44885;SDS011;36669;51.428;21.162;2023-02-12T18:01:51;88.47;;;33.78;;
44885;SDS011;36669;51.428;21.162;2023-02-12T18:04:18;17.65;;;9.00;;
44885;SDS011;36669;51.428;21.162;2023-02-12T18:06:45;33.35;;;14.70;;
44885;SDS011;36669;51.428;21.162;2023-02-12T18:09:13;33.50;;;14.50;;
44885;SDS011;36669;51.428;21.162;2023-02-12T18:11:41;29.42;;;10.50;;
44885;SDS011;36669;51.428;21.162;2023-02-12T18:14:09;19.48;;;8.63;;
44885;SDS011;36669;51.428;21.162;2023-02-12T18:16:35;77.85;;;28.02;;
44885;SDS011;36669;51.428;21.162;2023-02-12T18:19:02;61.60;;;21.58;;
44885;SDS011;36669;51.428;21.162;2023-02-12T18:21:31;40.75;;;16.92;;
44885;SDS011;36669;51.428;21.162;2023-02-12T18:24:00;50.85;;;20.42;;
44885;SDS011;36669;51.428;21.162;2023-02-12T18:26:27;68.75;;;21.60;;
44885;SDS011;36669;51.428;21.162;2023-02-12T18:28:55;56.60;;;19.30;;
44885;SDS011;36669;51.428;21.162;2023-02-12T18:31:22;34.67;;;13.40;;
44885;SDS011;36669;51.428;21.162;2023-02-12T18:33:48;10.30;;;4.45;;